sensor_id;sensor_type;location;lat;lon;timestamp;P1;durP1;ratioP1;P2;durP2;ratioP2
13171;SDS011;6651;53.200;10.432;2023-07-24T00:02:03;3.78;;;3.20;;
13171;SDS011;6651;53.200;10.432;2023-07-24T00:04:30;3.30;;;3.00;;
13171;SDS011;6651;53.200;10.432;2023-07-24T00:06:56;4.22;;;3.47;;
13171;SDS011;6651;53.200;10.432;2023-07-24T00:09:22;3.50;;;3.20;;
13171;SDS011;6651;53.200;10.432;2023-07-24T00:11:48;4.05;;;2.90;;
13171;SDS011;6651;53.200;10.432;2023-07-24T00:14:14;3.40;;;3.00;;
13171;SDS011;6651;53.200;10.432;2023-07-24T00:16:43;3.63;;;3.33;;
13171;SDS011;6651;53.200;10.432;2023-07-24T00:19:08;3.35;;;2.95;;
13171;SDS011;6651;53.200;10.432;2023-07-24T00:21:34;3.25;;;2.92;;
13171;SDS011;6651;53.200;10.432;2023-07-24T00:24:00;3.28;;;3.00;;
13171;SDS011;6651;53.200;10.432;2023-07-24T00:26:25;3.63;;;2.92;;
13171;SDS011;6651;53.200;10.432;2023-07-24T00:28:51;3.97;;;2.90;;
13171;SDS011;6651;53.200;10.432;2023-07-24T00:31:17;2.97;;;2.78;;
13171;SDS011;6651;53.200;10.432;2023-07-24T00:33:42;3.50;;;3.00;;
13171;SDS011;6651;53.200;10.432;2023-07-24T00:36:08;3.40;;;3.10;;
13171;SDS011;6651;53.200;10.432;2023-07-24T00:38:34;3.38;;;3.08;;
13171;SDS011;6651;53.200;10.432;2023-07-24T00:40:59;4.53;;;3.15;;
13171;SDS011;6651;53.200;10.432;2023-07-24T00:43:25;3.58;;;3.10;;
13171;SDS011;6651;53.200;10.432;2023-07-24T00:45:50;3.78;;;3.00;;
13171;SDS011;6651;53.200;10.432;2023-07-24T00:48:16;3.28;;;2.97;;
13171;SDS011;6651;53.200;10.432;2023-07-24T00:50:42;4.15;;;3.22;;
13171;SDS011;6651;53.200;10.432;2023-07-24T00:53:10;3.47;;;2.92;;
13171;SDS011;6651;53.200;10.432;2023-07-24T00:55:36;3.58;;;3.00;;
13171;SDS011;6651;53.200;10.432;2023-07-24T00:58:03;3.33;;;3.03;;
13171;SDS011;6651;53.200;10.432;2023-07-24T01:00:29;3.00;;;2.80;;
13171;SDS011;6651;53.200;10.432;2023-07-24T01:02:55;4.95;;;3.25;;
13171;SDS011;6651;53.200;10.432;2023-07-24T01:05:22;3.13;;;2.83;;
13171;SDS011;6651;53.200;10.432;2023-07-24T01:07:50;3.40;;;3.00;;
13171;SDS011;6651;53.200;10.432;2023-07-24T01:10:16;3.33;;;3.00;;
13171;SDS011;6651;53.200;10.432;2023-07-24T01:15:24;3.40;;;2.88;;
13171;SDS011;6651;53.200;10.432;2023-07-24T01:17:53;3.63;;;3.00;;
13171;SDS011;6651;53.200;10.432;2023-07-24T01:20:25;3.50;;;3.10;;
13171;SDS011;6651;53.200;10.432;2023-07-24T01:25:32;3.50;;;3.10;;
13171;SDS011;6651;53.200;10.432;2023-07-24T01:28:00;3.85;;;3.20;;
13171;SDS011;6651;53.200;10.432;2023-07-24T01:30:26;3.40;;;3.03;;
13171;SDS011;6651;53.200;10.432;2023-07-24T01:32:52;4.07;;;3.30;;
13171;SDS011;6651;53.200;10.432;2023-07-24T01:35:17;4.20;;;3.30;;
13171;SDS011;6651;53.200;10.432;2023-07-24T01:37:43;3.78;;;3.38;;
13171;SDS011;6651;53.200;10.432;2023-07-24T01:40:11;3.70;;;3.22;;
13171;SDS011;6651;53.200;10.432;2023-07-24T01:42:38;3.47;;;3.17;;
13171;SDS011;6651;53.200;10.432;2023-07-24T01:45:05;4.07;;;3.35;;
13171;SDS011;6651;53.200;10.432;2023-07-24T01:47:31;4.07;;;3.67;;
13171;SDS011;6651;53.200;10.432;2023-07-24T01:49:57;3.60;;;3.30;;
13171;SDS011;6651;53.200;10.432;2023-07-24T01:52:23;3.83;;;3.38;;
13171;SDS011;6651;53.200;10.432;2023-07-24T01:54:48;3.38;;;3.08;;
13171;SDS011;6651;53.200;10.432;2023-07-24T01:57:14;3.55;;;3.10;;
13171;SDS011;6651;53.200;10.432;2023-07-24T01:59:40;3.65;;;3.35;;
13171;SDS011;6651;53.200;10.432;2023-07-24T02:02:05;3.50;;;3.20;;
13171;SDS011;6651;53.200;10.432;2023-07-24T02:04:31;3.70;;;3.40;;
13171;SDS011;6651;53.200;10.432;2023-07-24T02:06:57;4.50;;;3.15;;
13171;SDS011;6651;53.200;10.432;2023-07-24T02:09:22;4.47;;;3.17;;
13171;SDS011;6651;53.200;10.432;2023-07-24T02:11:48;3.30;;;3.00;;
13171;SDS011;6651;53.200;10.432;2023-07-24T02:14:14;4.55;;;3.30;;
13171;SDS011;6651;53.200;10.432;2023-07-24T02:16:41;3.40;;;3.10;;
13171;SDS011;6651;53.200;10.432;2023-07-24T02:19:07;4.30;;;3.00;;
13171;SDS011;6651;53.200;10.432;2023-07-24T02:21:33;3.70;;;3.35;;
13171;SDS011;6651;53.200;10.432;2023-07-24T02:23:58;3.30;;;3.05;;
13171;SDS011;6651;53.200;10.432;2023-07-24T02:26:24;3.97;;;3.50;;
13171;SDS011;6651;53.200;10.432;2023-07-24T02:28:50;3.85;;;3.45;;
13171;SDS011;6651;53.200;10.432;2023-07-24T02:31:16;3.72;;;3.42;;
13171;SDS011;6651;53.200;10.432;2023-07-24T02:33:42;3.88;;;3.47;;
13171;SDS011;6651;53.200;10.432;2023-07-24T02:36:07;3.85;;;3.45;;
13171;SDS011;6651;53.200;10.432;2023-07-24T02:38:33;3.75;;;3.45;;
13171;SDS011;6651;53.200;10.432;2023-07-24T02:40:59;3.85;;;3.45;;
13171;SDS011;6651;53.200;10.432;2023-07-24T02:43:24;3.97;;;3.55;;
13171;SDS011;6651;53.200;10.432;2023-07-24T02:45:50;4.25;;;3.63;;
13171;SDS011;6651;53.200;10.432;2023-07-24T02:48:16;4.22;;;3.58;;
13171;SDS011;6651;53.200;10.432;2023-07-24T02:50:42;4.35;;;3.95;;
13171;SDS011;6651;53.200;10.432;2023-07-24T02:53:07;3.70;;;3.40;;
13171;SDS011;6651;53.200;10.432;2023-07-24T02:55:33;4.10;;;3.60;;
13171;SDS011;6651;53.200;10.432;2023-07-24T02:57:59;4.22;;;3.58;;
13171;SDS011;6651;53.200;10.432;2023-07-24T03:00:24;4.85;;;3.85;;
13171;SDS011;6651;53.200;10.432;2023-07-24T03:02:50;4.88;;;3.60;;
13171;SDS011;6651;53.200;10.432;2023-07-24T03:05:17;4.25;;;3.85;;
13171;SDS011;6651;53.200;10.432;2023-07-24T03:07:43;4.70;;;3.80;;
13171;SDS011;6651;53.200;10.432;2023-07-24T03:10:09;4.20;;;3.80;;
13171;SDS011;6651;53.200;10.432;2023-07-24T03:12:34;4.28;;;3.85;;
13171;SDS011;6651;53.200;10.432;2023-07-24T03:15:00;4.65;;;4.20;;
13171;SDS011;6651;53.200;10.432;2023-07-24T03:17:26;4.45;;;3.90;;
13171;SDS011;6651;53.200;10.432;2023-07-24T03:19:51;4.22;;;3.83;;
13171;SDS011;6651;53.200;10.432;2023-07-24T03:22:19;4.55;;;4.00;;
13171;SDS011;6651;53.200;10.432;2023-07-24T03:24:44;4.68;;;3.95;;
13171;SDS011;6651;53.200;10.432;2023-07-24T03:27:10;6.10;;;4.10;;
13171;SDS011;6651;53.200;10.432;2023-07-24T03:29:36;4.40;;;3.72;;
13171;SDS011;6651;53.200;10.432;2023-07-24T03:32:02;6.13;;;4.05;;
13171;SDS011;6651;53.200;10.432;2023-07-24T03:34:28;4.38;;;3.90;;
13171;SDS011;6651;53.200;10.432;2023-07-24T03:36:53;4.20;;;3.80;;
13171;SDS011;6651;53.200;10.432;2023-07-24T03:39:19;4.68;;;4.07;;
13171;SDS011;6651;53.200;10.432;2023-07-24T03:41:45;4.18;;;3.78;;
13171;SDS011;6651;53.200;10.432;2023-07-24T03:44:10;4.78;;;3.90;;
13171;SDS011;6651;53.200;10.432;2023-07-24T03:46:36;4.50;;;4.10;;
13171;SDS011;6651;53.200;10.432;2023-07-24T03:49:01;5.15;;;4.40;;
13171;SDS011;6651;53.200;10.432;2023-07-24T03:51:27;6.20;;;4.30;;
13171;SDS011;6651;53.200;10.432;2023-07-24T03:53:53;4.28;;;3.83;;
13171;SDS011;6651;53.200;10.432;2023-07-24T03:56:18;4.30;;;3.90;;
13171;SDS011;6651;53.200;10.432;2023-07-24T03:58:44;5.05;;;4.43;;
13171;SDS011;6651;53.200;10.432;2023-07-24T04:01:10;4.68;;;3.80;;
13171;SDS011;6651;53.200;10.432;2023-07-24T04:03:36;6.50;;;4.55;;
13171;SDS011;6651;53.200;10.432;2023-07-24T04:06:02;4.50;;;4.00;;
13171;SDS011;6651;53.200;10.432;2023-07-24T04:08:27;5.97;;;4.32;;
13171;SDS011;6651;53.200;10.432;2023-07-24T04:10:53;4.88;;;4.28;;
13171;SDS011;6651;53.200;10.432;2023-07-24T04:13:21;5.70;;;4.15;;
13171;SDS011;6651;53.200;10.432;2023-07-24T04:15:47;4.80;;;4.30;;
13171;SDS011;6651;53.200;10.432;2023-07-24T04:18:12;4.72;;;4.20;;
13171;SDS011;6651;53.200;10.432;2023-07-24T04:20:38;4.68;;;4.15;;
13171;SDS011;6651;53.200;10.432;2023-07-24T04:23:03;4.10;;;3.70;;
13171;SDS011;6651;53.200;10.432;2023-07-24T04:25:29;4.85;;;4.13;;
13171;SDS011;6651;53.200;10.432;2023-07-24T04:27:55;4.47;;;3.95;;
13171;SDS011;6651;53.200;10.432;2023-07-24T04:30:20;4.13;;;3.80;;
13171;SDS011;6651;53.200;10.432;2023-07-24T04:32:46;4.47;;;4.07;;
13171;SDS011;6651;53.200;10.432;2023-07-24T04:35:12;4.95;;;4.35;;
13171;SDS011;6651;53.200;10.432;2023-07-24T04:37:38;4.70;;;4.22;;
13171;SDS011;6651;53.200;10.432;2023-07-24T04:40:03;4.30;;;3.90;;
13171;SDS011;6651;53.200;10.432;2023-07-24T04:42:30;4.63;;;4.20;;
13171;SDS011;6651;53.200;10.432;2023-07-24T04:44:56;5.03;;;3.90;;
13171;SDS011;6651;53.200;10.432;2023-07-24T04:47:22;4.80;;;4.30;;
13171;SDS011;6651;53.200;10.432;2023-07-24T04:49:47;4.72;;;4.32;;
13171;SDS011;6651;53.200;10.432;2023-07-24T04:52:13;4.53;;;4.05;;
13171;SDS011;6651;53.200;10.432;2023-07-24T04:54:38;4.63;;;4.10;;
13171;SDS011;6651;53.200;10.432;2023-07-24T04:57:04;5.30;;;4.25;;
13171;SDS011;6651;53.200;10.432;2023-07-24T04:59:30;4.95;;;4.40;;
13171;SDS011;6651;53.200;10.432;2023-07-24T05:01:55;5.05;;;4.40;;
13171;SDS011;6651;53.200;10.432;2023-07-24T05:04:21;5.53;;;4.43;;
13171;SDS011;6651;53.200;10.432;2023-07-24T05:06:47;5.15;;;4.43;;
13171;SDS011;6651;53.200;10.432;2023-07-24T05:09:12;4.88;;;4.47;;
13171;SDS011;6651;53.200;10.432;2023-07-24T05:11:39;4.72;;;4.28;;
13171;SDS011;6651;53.200;10.432;2023-07-24T05:14:05;5.00;;;4.50;;
13171;SDS011;6651;53.200;10.432;2023-07-24T05:16:31;5.03;;;4.35;;
13171;SDS011;6651;53.200;10.432;2023-07-24T05:18:56;6.32;;;4.60;;
13171;SDS011;6651;53.200;10.432;2023-07-24T05:21:22;5.03;;;4.60;;
13171;SDS011;6651;53.200;10.432;2023-07-24T05:23:47;4.85;;;4.30;;
13171;SDS011;6651;53.200;10.432;2023-07-24T05:26:13;7.43;;;4.50;;
13171;SDS011;6651;53.200;10.432;2023-07-24T05:28:39;5.20;;;4.30;;
13171;SDS011;6651;53.200;10.432;2023-07-24T05:31:05;5.10;;;4.50;;
13171;SDS011;6651;53.200;10.432;2023-07-24T05:33:32;4.70;;;4.30;;
13171;SDS011;6651;53.200;10.432;2023-07-24T05:36:01;4.70;;;4.30;;
13171;SDS011;6651;53.200;10.432;2023-07-24T05:38:29;5.50;;;4.60;;
13171;SDS011;6651;53.200;10.432;2023-07-24T05:40:58;4.72;;;4.22;;
13171;SDS011;6651;53.200;10.432;2023-07-24T05:43:25;5.93;;;4.20;;
13171;SDS011;6651;53.200;10.432;2023-07-24T05:45:51;4.20;;;3.80;;
13171;SDS011;6651;53.200;10.432;2023-07-24T05:48:18;3.85;;;3.55;;
13171;SDS011;6651;53.200;10.432;2023-07-24T05:50:43;4.72;;;3.92;;
13171;SDS011;6651;53.200;10.432;2023-07-24T05:53:09;3.90;;;3.50;;
13171;SDS011;6651;53.200;10.432;2023-07-24T05:55:35;5.03;;;3.70;;
13171;SDS011;6651;53.200;10.432;2023-07-24T05:58:00;3.85;;;3.42;;
13171;SDS011;6651;53.200;10.432;2023-07-24T06:00:26;4.13;;;3.72;;
13171;SDS011;6651;53.200;10.432;2023-07-24T06:02:52;4.75;;;3.88;;
13171;SDS011;6651;53.200;10.432;2023-07-24T06:05:19;4.88;;;4.15;;
13171;SDS011;6651;53.200;10.432;2023-07-24T06:07:45;3.88;;;3.55;;
13171;SDS011;6651;53.200;10.432;2023-07-24T06:10:11;4.00;;;3.70;;
13171;SDS011;6651;53.200;10.432;2023-07-24T06:12:37;3.95;;;3.65;;
13171;SDS011;6651;53.200;10.432;2023-07-24T06:15:03;4.35;;;3.95;;
13171;SDS011;6651;53.200;10.432;2023-07-24T06:17:29;4.35;;;3.95;;
13171;SDS011;6651;53.200;10.432;2023-07-24T06:19:55;5.10;;;3.90;;
13171;SDS011;6651;53.200;10.432;2023-07-24T06:22:21;5.50;;;4.05;;
13171;SDS011;6651;53.200;10.432;2023-07-24T06:24:47;4.93;;;4.53;;
13171;SDS011;6651;53.200;10.432;2023-07-24T06:27:13;5.82;;;4.85;;
13171;SDS011;6651;53.200;10.432;2023-07-24T06:29:39;5.38;;;4.88;;
13171;SDS011;6651;53.200;10.432;2023-07-24T06:32:05;5.82;;;5.00;;
13171;SDS011;6651;53.200;10.432;2023-07-24T06:34:31;5.63;;;5.10;;
13171;SDS011;6651;53.200;10.432;2023-07-24T06:36:57;6.30;;;5.38;;
13171;SDS011;6651;53.200;10.432;2023-07-24T06:39:23;6.07;;;5.47;;
13171;SDS011;6651;53.200;10.432;2023-07-24T06:41:50;6.25;;;5.50;;
13171;SDS011;6651;53.200;10.432;2023-07-24T06:44:17;7.03;;;5.78;;
13171;SDS011;6651;53.200;10.432;2023-07-24T06:46:42;6.50;;;5.85;;
13171;SDS011;6651;53.200;10.432;2023-07-24T06:49:08;6.43;;;5.82;;
13171;SDS011;6651;53.200;10.432;2023-07-24T06:51:35;6.30;;;5.70;;
13171;SDS011;6651;53.200;10.432;2023-07-24T06:54:00;6.68;;;6.07;;
13171;SDS011;6651;53.200;10.432;2023-07-24T06:56:27;6.70;;;6.00;;
13171;SDS011;6651;53.200;10.432;2023-07-24T06:58:53;7.18;;;6.38;;
13171;SDS011;6651;53.200;10.432;2023-07-24T07:01:19;6.90;;;6.03;;
13171;SDS011;6651;53.200;10.432;2023-07-24T07:03:44;8.73;;;6.75;;
13171;SDS011;6651;53.200;10.432;2023-07-24T07:06:10;7.55;;;6.00;;
13171;SDS011;6651;53.200;10.432;2023-07-24T07:08:37;6.75;;;6.15;;
13171;SDS011;6651;53.200;10.432;2023-07-24T07:11:02;6.63;;;5.90;;
13171;SDS011;6651;53.200;10.432;2023-07-24T07:13:28;6.35;;;5.75;;
13171;SDS011;6651;53.200;10.432;2023-07-24T07:15:54;6.80;;;6.00;;
13171;SDS011;6651;53.200;10.432;2023-07-24T07:18:20;7.03;;;5.72;;
13171;SDS011;6651;53.200;10.432;2023-07-24T07:20:46;6.05;;;5.55;;
13171;SDS011;6651;53.200;10.432;2023-07-24T07:23:12;6.45;;;5.85;;
13171;SDS011;6651;53.200;10.432;2023-07-24T07:25:38;7.22;;;6.20;;
13171;SDS011;6651;53.200;10.432;2023-07-24T07:28:04;7.88;;;6.18;;
13171;SDS011;6651;53.200;10.432;2023-07-24T07:30:30;6.70;;;6.10;;
13171;SDS011;6651;53.200;10.432;2023-07-24T07:32:55;6.65;;;6.00;;
13171;SDS011;6651;53.200;10.432;2023-07-24T07:35:21;7.15;;;6.50;;
13171;SDS011;6651;53.200;10.432;2023-07-24T07:37:47;8.15;;;6.47;;
13171;SDS011;6651;53.200;10.432;2023-07-24T07:40:12;7.97;;;7.28;;
13171;SDS011;6651;53.200;10.432;2023-07-24T07:42:38;7.88;;;7.10;;
13171;SDS011;6651;53.200;10.432;2023-07-24T07:45:04;8.27;;;7.57;;
13171;SDS011;6651;53.200;10.432;2023-07-24T07:47:30;8.45;;;7.63;;
13171;SDS011;6651;53.200;10.432;2023-07-24T07:49:55;7.75;;;7.05;;
13171;SDS011;6651;53.200;10.432;2023-07-24T07:52:21;10.35;;;8.23;;
13171;SDS011;6651;53.200;10.432;2023-07-24T07:54:47;8.57;;;7.80;;
13171;SDS011;6651;53.200;10.432;2023-07-24T07:57:14;8.88;;;8.07;;
13171;SDS011;6651;53.200;10.432;2023-07-24T07:59:40;9.15;;;8.00;;
13171;SDS011;6651;53.200;10.432;2023-07-24T08:02:06;9.43;;;8.27;;
13171;SDS011;6651;53.200;10.432;2023-07-24T08:04:31;9.38;;;8.48;;
13171;SDS011;6651;53.200;10.432;2023-07-24T08:06:57;8.52;;;7.72;;
13171;SDS011;6651;53.200;10.432;2023-07-24T08:09:23;9.10;;;8.20;;
13171;SDS011;6651;53.200;10.432;2023-07-24T08:11:49;10.10;;;7.78;;
13171;SDS011;6651;53.200;10.432;2023-07-24T08:14:16;10.68;;;8.60;;
13171;SDS011;6651;53.200;10.432;2023-07-24T08:16:44;9.00;;;7.80;;
13171;SDS011;6651;53.200;10.432;2023-07-24T08:19:13;11.48;;;10.18;;
13171;SDS011;6651;53.200;10.432;2023-07-24T08:21:38;10.45;;;9.55;;
13171;SDS011;6651;53.200;10.432;2023-07-24T08:24:05;9.10;;;8.20;;
13171;SDS011;6651;53.200;10.432;2023-07-24T08:26:31;9.27;;;8.35;;
13171;SDS011;6651;53.200;10.432;2023-07-24T08:28:57;8.73;;;7.88;;
13171;SDS011;6651;53.200;10.432;2023-07-24T08:31:22;9.95;;;9.02;;
13171;SDS011;6651;53.200;10.432;2023-07-24T08:33:48;10.15;;;9.15;;
13171;SDS011;6651;53.200;10.432;2023-07-24T08:36:14;9.05;;;8.15;;
13171;SDS011;6651;53.200;10.432;2023-07-24T08:38:40;8.57;;;7.75;;
13171;SDS011;6651;53.200;10.432;2023-07-24T08:41:11;8.68;;;7.88;;
13171;SDS011;6651;53.200;10.432;2023-07-24T08:43:38;7.55;;;6.85;;
13171;SDS011;6651;53.200;10.432;2023-07-24T08:46:06;7.10;;;6.40;;
13171;SDS011;6651;53.200;10.432;2023-07-24T08:48:32;7.07;;;6.38;;
13171;SDS011;6651;53.200;10.432;2023-07-24T08:51:03;6.43;;;5.82;;
13171;SDS011;6651;53.200;10.432;2023-07-24T08:53:33;6.55;;;5.30;;
13171;SDS011;6651;53.200;10.432;2023-07-24T08:56:02;5.95;;;5.35;;
13171;SDS011;6651;53.200;10.432;2023-07-24T08:58:28;5.65;;;4.63;;
13171;SDS011;6651;53.200;10.432;2023-07-24T09:00:55;4.15;;;3.85;;
13171;SDS011;6651;53.200;10.432;2023-07-24T09:03:22;5.85;;;4.10;;
13171;SDS011;6651;53.200;10.432;2023-07-24T09:05:48;5.25;;;4.13;;
13171;SDS011;6651;53.200;10.432;2023-07-24T09:08:13;4.63;;;4.22;;
13171;SDS011;6651;53.200;10.432;2023-07-24T09:10:39;4.93;;;4.43;;
13171;SDS011;6651;53.200;10.432;2023-07-24T09:13:05;4.95;;;4.55;;
13171;SDS011;6651;53.200;10.432;2023-07-24T09:15:41;4.90;;;4.40;;
13171;SDS011;6651;53.200;10.432;2023-07-24T09:18:08;5.20;;;4.70;;
13171;SDS011;6651;53.200;10.432;2023-07-24T09:20:38;5.30;;;4.80;;
13171;SDS011;6651;53.200;10.432;2023-07-24T09:23:08;4.70;;;4.30;;
13171;SDS011;6651;53.200;10.432;2023-07-24T09:25:35;4.47;;;4.07;;
13171;SDS011;6651;53.200;10.432;2023-07-24T09:28:12;4.93;;;3.90;;
13171;SDS011;6651;53.200;10.432;2023-07-24T09:30:38;4.57;;;3.88;;
13171;SDS011;6651;53.200;10.432;2023-07-24T09:33:05;3.80;;;3.50;;
13171;SDS011;6651;53.200;10.432;2023-07-24T09:35:31;3.63;;;3.33;;
13171;SDS011;6651;53.200;10.432;2023-07-24T09:38:07;3.45;;;2.63;;
13171;SDS011;6651;53.200;10.432;2023-07-24T09:40:44;2.90;;;2.60;;
13171;SDS011;6651;53.200;10.432;2023-07-24T09:43:17;3.30;;;2.70;;
13171;SDS011;6651;53.200;10.432;2023-07-24T09:45:47;3.10;;;2.80;;
13171;SDS011;6651;53.200;10.432;2023-07-24T09:48:15;2.70;;;2.50;;
13171;SDS011;6651;53.200;10.432;2023-07-24T09:50:42;2.55;;;2.35;;
13171;SDS011;6651;53.200;10.432;2023-07-24T09:56:30;3.17;;;2.30;;
13171;SDS011;6651;53.200;10.432;2023-07-24T09:58:57;4.43;;;2.50;;
13171;SDS011;6651;53.200;10.432;2023-07-24T10:01:25;2.67;;;2.47;;
13171;SDS011;6651;53.200;10.432;2023-07-24T10:03:52;2.75;;;2.40;;
13171;SDS011;6651;53.200;10.432;2023-07-24T10:06:18;2.72;;;2.50;;
13171;SDS011;6651;53.200;10.432;2023-07-24T10:08:45;2.55;;;2.30;;
13171;SDS011;6651;53.200;10.432;2023-07-24T10:11:12;2.90;;;2.60;;
13171;SDS011;6651;53.200;10.432;2023-07-24T10:13:39;2.92;;;2.50;;
13171;SDS011;6651;53.200;10.432;2023-07-24T10:16:06;2.80;;;2.60;;
13171;SDS011;6651;53.200;10.432;2023-07-24T10:18:33;2.78;;;2.58;;
13171;SDS011;6651;53.200;10.432;2023-07-24T10:21:03;3.17;;;2.47;;
13171;SDS011;6651;53.200;10.432;2023-07-24T10:23:30;2.70;;;2.50;;
13171;SDS011;6651;53.200;10.432;2023-07-24T10:26:07;3.00;;;2.80;;
13171;SDS011;6651;53.200;10.432;2023-07-24T10:28:35;2.97;;;2.78;;
13171;SDS011;6651;53.200;10.432;2023-07-24T10:31:19;3.63;;;3.10;;
13171;SDS011;6651;53.200;10.432;2023-07-24T10:33:47;3.30;;;3.00;;
13171;SDS011;6651;53.200;10.432;2023-07-24T10:36:16;4.35;;;3.42;;
13171;SDS011;6651;53.200;10.432;2023-07-24T10:38:44;3.47;;;3.20;;
13171;SDS011;6651;53.200;10.432;2023-07-24T10:41:11;3.30;;;3.05;;
13171;SDS011;6651;53.200;10.432;2023-07-24T10:43:44;3.50;;;3.20;;
13171;SDS011;6651;53.200;10.432;2023-07-24T10:46:15;3.60;;;3.30;;
13171;SDS011;6651;53.200;10.432;2023-07-24T10:48:44;4.97;;;3.33;;
13171;SDS011;6651;53.200;10.432;2023-07-24T10:51:11;4.47;;;3.42;;
13171;SDS011;6651;53.200;10.432;2023-07-24T10:53:41;5.32;;;3.33;;
13171;SDS011;6651;53.200;10.432;2023-07-24T10:56:11;3.80;;;3.50;;
13171;SDS011;6651;53.200;10.432;2023-07-24T10:58:37;3.67;;;3.38;;
13171;SDS011;6651;53.200;10.432;2023-07-24T11:01:04;2.88;;;2.67;;
13171;SDS011;6651;53.200;10.432;2023-07-24T11:03:30;4.03;;;3.05;;
13171;SDS011;6651;53.200;10.432;2023-07-24T11:05:57;4.47;;;3.60;;
13171;SDS011;6651;53.200;10.432;2023-07-24T11:08:23;3.00;;;2.80;;
13171;SDS011;6651;53.200;10.432;2023-07-24T11:10:54;3.50;;;3.20;;
13171;SDS011;6651;53.200;10.432;2023-07-24T11:13:26;3.25;;;2.95;;
13171;SDS011;6651;53.200;10.432;2023-07-24T11:15:53;3.00;;;2.70;;
13171;SDS011;6651;53.200;10.432;2023-07-24T11:18:20;3.47;;;2.83;;
13171;SDS011;6651;53.200;10.432;2023-07-24T11:23:17;2.90;;;2.70;;
13171;SDS011;6651;53.200;10.432;2023-07-24T11:25:43;3.22;;;3.00;;
13171;SDS011;6651;53.200;10.432;2023-07-24T11:28:10;3.10;;;2.90;;
13171;SDS011;6651;53.200;10.432;2023-07-24T11:30:36;3.20;;;2.90;;
13171;SDS011;6651;53.200;10.432;2023-07-24T11:33:02;3.40;;;3.10;;
13171;SDS011;6651;53.200;10.432;2023-07-24T11:35:29;3.38;;;3.08;;
13171;SDS011;6651;53.200;10.432;2023-07-24T11:37:55;3.50;;;3.20;;
13171;SDS011;6651;53.200;10.432;2023-07-24T11:40:29;3.42;;;3.03;;
13171;SDS011;6651;53.200;10.432;2023-07-24T11:43:14;2.88;;;2.60;;
13171;SDS011;6651;53.200;10.432;2023-07-24T11:45:50;3.40;;;2.63;;
13171;SDS011;6651;53.200;10.432;2023-07-24T11:48:20;2.90;;;2.70;;
13171;SDS011;6651;53.200;10.432;2023-07-24T11:50:48;2.65;;;2.45;;
13171;SDS011;6651;53.200;10.432;2023-07-24T11:53:29;3.28;;;2.33;;
13171;SDS011;6651;53.200;10.432;2023-07-24T11:55:57;2.70;;;2.50;;
13171;SDS011;6651;53.200;10.432;2023-07-24T11:58:28;2.60;;;2.40;;
13171;SDS011;6651;53.200;10.432;2023-07-24T12:00:55;2.38;;;2.17;;
13171;SDS011;6651;53.200;10.432;2023-07-24T12:03:21;2.72;;;2.42;;
13171;SDS011;6651;53.200;10.432;2023-07-24T12:05:49;2.40;;;2.20;;
13171;SDS011;6651;53.200;10.432;2023-07-24T12:08:15;2.40;;;2.20;;
13171;SDS011;6651;53.200;10.432;2023-07-24T12:10:43;2.40;;;2.20;;
13171;SDS011;6651;53.200;10.432;2023-07-24T12:13:09;2.40;;;2.00;;
13171;SDS011;6651;53.200;10.432;2023-07-24T12:15:34;2.47;;;2.28;;
13171;SDS011;6651;53.200;10.432;2023-07-24T12:18:01;1.90;;;1.80;;
13171;SDS011;6651;53.200;10.432;2023-07-24T12:20:29;2.22;;;2.10;;
13171;SDS011;6651;53.200;10.432;2023-07-24T12:22:55;2.15;;;1.98;;
13171;SDS011;6651;53.200;10.432;2023-07-24T12:25:21;3.20;;;1.90;;
13171;SDS011;6651;53.200;10.432;2023-07-24T12:27:47;1.85;;;1.75;;
13171;SDS011;6651;53.200;10.432;2023-07-24T12:30:13;1.98;;;1.88;;
13171;SDS011;6651;53.200;10.432;2023-07-24T12:32:39;1.80;;;1.70;;
13171;SDS011;6651;53.200;10.432;2023-07-24T12:35:05;1.83;;;1.70;;
13171;SDS011;6651;53.200;10.432;2023-07-24T12:37:32;1.80;;;1.70;;
13171;SDS011;6651;53.200;10.432;2023-07-24T12:39:57;1.70;;;1.60;;
13171;SDS011;6651;53.200;10.432;2023-07-24T12:42:23;2.15;;;1.80;;
13171;SDS011;6651;53.200;10.432;2023-07-24T12:44:49;1.90;;;1.80;;
13171;SDS011;6651;53.200;10.432;2023-07-24T12:47:14;2.42;;;1.65;;
13171;SDS011;6651;53.200;10.432;2023-07-24T12:49:40;2.25;;;1.92;;
13171;SDS011;6651;53.200;10.432;2023-07-24T12:52:06;1.92;;;1.77;;
13171;SDS011;6651;53.200;10.432;2023-07-24T12:54:32;1.95;;;1.73;;
13171;SDS011;6651;53.200;10.432;2023-07-24T12:56:59;2.10;;;1.90;;
13171;SDS011;6651;53.200;10.432;2023-07-24T12:59:25;2.20;;;2.00;;
13171;SDS011;6651;53.200;10.432;2023-07-24T13:01:51;1.70;;;1.60;;
13171;SDS011;6651;53.200;10.432;2023-07-24T13:04:16;1.80;;;1.70;;
13171;SDS011;6651;53.200;10.432;2023-07-24T13:06:43;1.85;;;1.67;;
13171;SDS011;6651;53.200;10.432;2023-07-24T13:09:09;2.25;;;1.70;;
13171;SDS011;6651;53.200;10.432;2023-07-24T13:11:35;1.83;;;1.73;;
13171;SDS011;6651;53.200;10.432;2023-07-24T13:14:01;1.77;;;1.67;;
13171;SDS011;6651;53.200;10.432;2023-07-24T13:16:26;1.95;;;1.70;;
13171;SDS011;6651;53.200;10.432;2023-07-24T13:18:52;2.35;;;2.15;;
13171;SDS011;6651;53.200;10.432;2023-07-24T13:21:18;2.00;;;1.90;;
13171;SDS011;6651;53.200;10.432;2023-07-24T13:23:44;1.73;;;1.63;;
13171;SDS011;6651;53.200;10.432;2023-07-24T13:26:09;1.92;;;1.83;;
13171;SDS011;6651;53.200;10.432;2023-07-24T13:28:44;2.20;;;2.00;;
13171;SDS011;6651;53.200;10.432;2023-07-24T13:31:14;1.95;;;1.85;;
13171;SDS011;6651;53.200;10.432;2023-07-24T13:33:43;2.25;;;1.90;;
13171;SDS011;6651;53.200;10.432;2023-07-24T13:36:09;1.92;;;1.83;;
13171;SDS011;6651;53.200;10.432;2023-07-24T13:38:35;1.95;;;1.73;;
13171;SDS011;6651;53.200;10.432;2023-07-24T13:41:01;1.80;;;1.70;;
13171;SDS011;6651;53.200;10.432;2023-07-24T13:43:29;2.75;;;2.45;;
13171;SDS011;6651;53.200;10.432;2023-07-24T13:45:55;2.08;;;1.98;;
13171;SDS011;6651;53.200;10.432;2023-07-24T13:48:21;2.05;;;1.92;;
13171;SDS011;6651;53.200;10.432;2023-07-24T13:50:47;2.40;;;2.20;;
13171;SDS011;6651;53.200;10.432;2023-07-24T13:53:14;2.00;;;1.90;;
13171;SDS011;6651;53.200;10.432;2023-07-24T13:55:40;2.30;;;2.10;;
13171;SDS011;6651;53.200;10.432;2023-07-24T13:58:05;2.28;;;2.13;;
13171;SDS011;6651;53.200;10.432;2023-07-24T14:00:31;2.50;;;2.28;;
13171;SDS011;6651;53.200;10.432;2023-07-24T14:02:57;3.42;;;1.90;;
13171;SDS011;6651;53.200;10.432;2023-07-24T14:05:23;2.97;;;2.17;;
13171;SDS011;6651;53.200;10.432;2023-07-24T14:07:49;2.45;;;2.25;;
13171;SDS011;6651;53.200;10.432;2023-07-24T14:10:15;2.20;;;2.00;;
13171;SDS011;6651;53.200;10.432;2023-07-24T14:12:40;2.20;;;2.10;;
13171;SDS011;6651;53.200;10.432;2023-07-24T14:15:06;2.50;;;2.30;;
13171;SDS011;6651;53.200;10.432;2023-07-24T14:17:32;2.72;;;2.17;;
13171;SDS011;6651;53.200;10.432;2023-07-24T14:20:00;2.40;;;2.20;;
13171;SDS011;6651;53.200;10.432;2023-07-24T14:22:29;2.40;;;2.20;;
13171;SDS011;6651;53.200;10.432;2023-07-24T14:24:55;2.80;;;2.50;;
13171;SDS011;6651;53.200;10.432;2023-07-24T14:27:21;2.60;;;2.40;;
13171;SDS011;6651;53.200;10.432;2023-07-24T14:29:46;2.60;;;2.40;;
13171;SDS011;6651;53.200;10.432;2023-07-24T14:32:12;2.90;;;2.60;;
13171;SDS011;6651;53.200;10.432;2023-07-24T14:34:38;3.03;;;2.50;;
13171;SDS011;6651;53.200;10.432;2023-07-24T14:37:04;2.92;;;2.60;;
13171;SDS011;6651;53.200;10.432;2023-07-24T14:39:30;2.83;;;2.58;;
13171;SDS011;6651;53.200;10.432;2023-07-24T14:41:55;4.65;;;2.60;;
13171;SDS011;6651;53.200;10.432;2023-07-24T14:44:21;3.33;;;2.83;;
13171;SDS011;6651;53.200;10.432;2023-07-24T14:46:47;2.75;;;2.55;;
13171;SDS011;6651;53.200;10.432;2023-07-24T14:49:12;3.17;;;2.88;;
13171;SDS011;6651;53.200;10.432;2023-07-24T14:51:38;2.85;;;2.50;;
13171;SDS011;6651;53.200;10.432;2023-07-24T14:54:03;3.00;;;2.80;;
13171;SDS011;6651;53.200;10.432;2023-07-24T14:56:29;2.80;;;2.60;;